Portada
METAR-TAF:

METAR-TAF

Aeroports :

Sanya, Xina

latitud: 18-18N, longitud: 109-24E, altitud: 27 m

Observació

L'informe es va fer fa 46 minuts, a les 04:00 UTC
Vent 6 kt del Nord-Est, variant entre Nord i Est
Temperatura 29°C
Humitat 45%
Pressió 1017 hPa
Visibilitat 10 km o més
Escasses núvols a una alçada de 5000 ft

METAR: ZJSY 210400Z 04003MPS 010V080 9999 FEW050 29/16 Q1017 NOSIG

Hora: 12:46 (04:46 UTC)

Pronòstic

L'informe es va fer fa 9 hores i 44 minuts, a les 19:02 UTC
Pronòstic vàlid del 21 a les 00 UTC al 21 a les 24 UTC
Vent 8 kt del Est
Visibilitat 10 km o més
Escasses núvols a una alçada de 2000 ft

TAF: ZJSY 201902Z 2100/2124 09004MPS 9999 FEW020 TX30/2106Z TN20/2121Z

Observacions i pronòstics meteorològics de més de 4000 aeroports (METAR i TAF).

Les estacions disponibles són els punts grocs i vermells al mapa.

Posi el ratolí al punt desitjat per veure el nom de l'estació.

Feu clic per veure les observacions i els pronòstics meteorològics.

Per canviar el mapa: feu clic els botons verds amb una creu de color negre per apropar; al botó verd amb un guió per allunyar la imatge; o en les fletxes verdes per a mapes adjacents.


METAR-TAF: